sensor_id;sensor_type;location;lat;lon;timestamp;P1;durP1;ratioP1;P2;durP2;ratioP2
71435;SDS011;59251;51.326;12.370;2023-07-08T00:02:07;9.10;;;2.93;;
71435;SDS011;59251;51.326;12.370;2023-07-08T00:04:37;8.15;;;3.03;;
71435;SDS011;59251;51.326;12.370;2023-07-08T00:07:05;8.07;;;3.40;;
71435;SDS011;59251;51.326;12.370;2023-07-08T00:09:32;8.65;;;2.78;;
71435;SDS011;59251;51.326;12.370;2023-07-08T00:11:58;10.40;;;3.20;;
71435;SDS011;59251;51.326;12.370;2023-07-08T00:14:25;7.63;;;2.83;;
71435;SDS011;59251;51.326;12.370;2023-07-08T00:16:52;8.73;;;3.15;;
71435;SDS011;59251;51.326;12.370;2023-07-08T00:19:19;9.07;;;2.88;;
71435;SDS011;59251;51.326;12.370;2023-07-08T00:21:50;8.45;;;3.17;;
71435;SDS011;59251;51.326;12.370;2023-07-08T00:24:18;8.88;;;3.33;;
71435;SDS011;59251;51.326;12.370;2023-07-08T00:26:44;9.53;;;3.23;;
71435;SDS011;59251;51.326;12.370;2023-07-08T00:29:11;7.88;;;2.90;;
71435;SDS011;59251;51.326;12.370;2023-07-08T00:31:39;7.47;;;2.95;;
71435;SDS011;59251;51.326;12.370;2023-07-08T00:34:05;7.45;;;3.00;;
71435;SDS011;59251;51.326;12.370;2023-07-08T00:36:32;7.10;;;2.63;;
71435;SDS011;59251;51.326;12.370;2023-07-08T00:39:00;8.80;;;3.17;;
71435;SDS011;59251;51.326;12.370;2023-07-08T00:41:28;8.98;;;3.25;;
71435;SDS011;59251;51.326;12.370;2023-07-08T00:43:59;7.75;;;3.17;;
71435;SDS011;59251;51.326;12.370;2023-07-08T00:46:31;8.45;;;2.92;;
71435;SDS011;59251;51.326;12.370;2023-07-08T00:49:08;8.35;;;3.15;;
71435;SDS011;59251;51.326;12.370;2023-07-08T00:51:43;6.93;;;3.13;;
71435;SDS011;59251;51.326;12.370;2023-07-08T00:54:11;7.85;;;3.30;;
71435;SDS011;59251;51.326;12.370;2023-07-08T00:56:39;7.70;;;2.80;;
71435;SDS011;59251;51.326;12.370;2023-07-08T00:59:10;8.50;;;3.20;;
71435;SDS011;59251;51.326;12.370;2023-07-08T01:01:41;10.85;;;3.20;;
71435;SDS011;59251;51.326;12.370;2023-07-08T01:04:10;7.83;;;3.00;;
71435;SDS011;59251;51.326;12.370;2023-07-08T01:06:40;8.25;;;3.08;;
71435;SDS011;59251;51.326;12.370;2023-07-08T01:09:12;7.80;;;3.00;;
71435;SDS011;59251;51.326;12.370;2023-07-08T01:11:41;7.07;;;3.05;;
71435;SDS011;59251;51.326;12.370;2023-07-08T01:14:09;9.38;;;3.15;;
71435;SDS011;59251;51.326;12.370;2023-07-08T01:16:38;9.50;;;3.03;;
71435;SDS011;59251;51.326;12.370;2023-07-08T01:19:06;8.77;;;3.25;;
71435;SDS011;59251;51.326;12.370;2023-07-08T01:21:39;9.85;;;3.25;;
71435;SDS011;59251;51.326;12.370;2023-07-08T01:24:10;7.88;;;2.95;;
71435;SDS011;59251;51.326;12.370;2023-07-08T01:26:38;10.60;;;3.20;;
71435;SDS011;59251;51.326;12.370;2023-07-08T01:29:09;10.83;;;2.97;;
71435;SDS011;59251;51.326;12.370;2023-07-08T01:31:36;9.32;;;2.83;;
71435;SDS011;59251;51.326;12.370;2023-07-08T01:34:04;9.25;;;3.38;;
71435;SDS011;59251;51.326;12.370;2023-07-08T01:36:40;7.40;;;2.92;;
71435;SDS011;59251;51.326;12.370;2023-07-08T01:39:14;10.13;;;3.47;;
71435;SDS011;59251;51.326;12.370;2023-07-08T01:41:44;9.20;;;3.20;;
71435;SDS011;59251;51.326;12.370;2023-07-08T01:44:19;8.15;;;2.88;;
71435;SDS011;59251;51.326;12.370;2023-07-08T01:46:47;8.25;;;3.17;;
71435;SDS011;59251;51.326;12.370;2023-07-08T01:49:15;9.65;;;3.20;;
71435;SDS011;59251;51.326;12.370;2023-07-08T01:51:42;7.72;;;2.80;;
71435;SDS011;59251;51.326;12.370;2023-07-08T01:54:10;9.10;;;3.53;;
71435;SDS011;59251;51.326;12.370;2023-07-08T01:56:37;8.25;;;3.17;;
71435;SDS011;59251;51.326;12.370;2023-07-08T01:59:04;8.75;;;2.92;;
71435;SDS011;59251;51.326;12.370;2023-07-08T02:01:31;7.43;;;3.13;;
71435;SDS011;59251;51.326;12.370;2023-07-08T02:03:57;8.68;;;3.05;;
71435;SDS011;59251;51.326;12.370;2023-07-08T02:06:24;9.83;;;2.77;;
71435;SDS011;59251;51.326;12.370;2023-07-08T02:08:51;8.68;;;3.40;;
71435;SDS011;59251;51.326;12.370;2023-07-08T02:11:19;8.60;;;3.45;;
71435;SDS011;59251;51.326;12.370;2023-07-08T02:13:47;9.93;;;3.05;;
71435;SDS011;59251;51.326;12.370;2023-07-08T02:16:14;7.28;;;3.28;;
71435;SDS011;59251;51.326;12.370;2023-07-08T02:18:40;9.00;;;3.57;;
71435;SDS011;59251;51.326;12.370;2023-07-08T02:21:08;10.77;;;3.30;;
71435;SDS011;59251;51.326;12.370;2023-07-08T02:23:35;7.90;;;3.00;;
71435;SDS011;59251;51.326;12.370;2023-07-08T02:26:02;8.73;;;3.15;;
71435;SDS011;59251;51.326;12.370;2023-07-08T02:28:30;7.05;;;2.80;;
71435;SDS011;59251;51.326;12.370;2023-07-08T02:31:01;7.30;;;2.90;;
71435;SDS011;59251;51.326;12.370;2023-07-08T02:33:28;7.72;;;3.10;;
71435;SDS011;59251;51.326;12.370;2023-07-08T02:35:57;7.72;;;2.65;;
71435;SDS011;59251;51.326;12.370;2023-07-08T02:38:24;6.97;;;3.05;;
71435;SDS011;59251;51.326;12.370;2023-07-08T02:40:51;8.88;;;3.25;;
71435;SDS011;59251;51.326;12.370;2023-07-08T02:43:18;8.73;;;3.20;;
71435;SDS011;59251;51.326;12.370;2023-07-08T02:45:46;7.45;;;2.65;;
71435;SDS011;59251;51.326;12.370;2023-07-08T02:48:15;8.60;;;3.30;;
71435;SDS011;59251;51.326;12.370;2023-07-08T02:50:42;7.95;;;2.80;;
71435;SDS011;59251;51.326;12.370;2023-07-08T02:53:08;9.63;;;3.17;;
71435;SDS011;59251;51.326;12.370;2023-07-08T02:55:35;8.63;;;3.40;;
71435;SDS011;59251;51.326;12.370;2023-07-08T02:58:02;9.57;;;3.10;;
71435;SDS011;59251;51.326;12.370;2023-07-08T03:00:28;11.25;;;3.60;;
71435;SDS011;59251;51.326;12.370;2023-07-08T03:02:56;8.32;;;2.97;;
71435;SDS011;59251;51.326;12.370;2023-07-08T03:05:25;7.22;;;3.20;;
71435;SDS011;59251;51.326;12.370;2023-07-08T03:07:52;7.97;;;2.60;;
71435;SDS011;59251;51.326;12.370;2023-07-08T03:10:19;9.13;;;3.60;;
71435;SDS011;59251;51.326;12.370;2023-07-08T03:12:45;7.63;;;3.28;;
71435;SDS011;59251;51.326;12.370;2023-07-08T03:15:12;7.95;;;3.22;;
71435;SDS011;59251;51.326;12.370;2023-07-08T03:17:39;10.77;;;3.38;;
71435;SDS011;59251;51.326;12.370;2023-07-08T03:20:08;8.53;;;3.20;;
71435;SDS011;59251;51.326;12.370;2023-07-08T03:22:35;8.63;;;3.33;;
71435;SDS011;59251;51.326;12.370;2023-07-08T03:25:02;10.48;;;3.90;;
71435;SDS011;59251;51.326;12.370;2023-07-08T03:27:30;10.02;;;3.33;;
71435;SDS011;59251;51.326;12.370;2023-07-08T03:29:56;7.97;;;3.38;;
71435;SDS011;59251;51.326;12.370;2023-07-08T03:32:23;9.43;;;3.93;;
71435;SDS011;59251;51.326;12.370;2023-07-08T03:34:50;11.68;;;3.83;;
71435;SDS011;59251;51.326;12.370;2023-07-08T03:37:20;9.75;;;3.53;;
71435;SDS011;59251;51.326;12.370;2023-07-08T03:39:47;9.05;;;3.40;;
71435;SDS011;59251;51.326;12.370;2023-07-08T03:42:13;11.07;;;4.82;;
71435;SDS011;59251;51.326;12.370;2023-07-08T03:44:40;14.87;;;5.20;;
71435;SDS011;59251;51.326;12.370;2023-07-08T03:47:07;13.43;;;3.90;;
71435;SDS011;59251;51.326;12.370;2023-07-08T03:49:35;8.95;;;4.18;;
71435;SDS011;59251;51.326;12.370;2023-07-08T03:52:02;8.50;;;3.90;;
71435;SDS011;59251;51.326;12.370;2023-07-08T03:54:31;9.65;;;3.53;;
71435;SDS011;59251;51.326;12.370;2023-07-08T03:56:58;10.43;;;3.47;;
71435;SDS011;59251;51.326;12.370;2023-07-08T03:59:26;7.55;;;3.13;;
71435;SDS011;59251;51.326;12.370;2023-07-08T04:01:55;8.35;;;3.45;;
71435;SDS011;59251;51.326;12.370;2023-07-08T04:04:23;11.90;;;3.88;;
71435;SDS011;59251;51.326;12.370;2023-07-08T04:06:50;9.02;;;3.58;;
71435;SDS011;59251;51.326;12.370;2023-07-08T04:09:16;8.53;;;3.50;;
71435;SDS011;59251;51.326;12.370;2023-07-08T04:11:44;9.00;;;3.35;;
71435;SDS011;59251;51.326;12.370;2023-07-08T04:14:11;8.52;;;3.30;;
71435;SDS011;59251;51.326;12.370;2023-07-08T04:16:43;7.38;;;3.38;;
71435;SDS011;59251;51.326;12.370;2023-07-08T04:19:12;8.48;;;3.58;;
71435;SDS011;59251;51.326;12.370;2023-07-08T04:21:41;8.33;;;3.27;;
71435;SDS011;59251;51.326;12.370;2023-07-08T04:24:09;7.45;;;3.20;;
71435;SDS011;59251;51.326;12.370;2023-07-08T04:26:36;7.70;;;3.45;;
71435;SDS011;59251;51.326;12.370;2023-07-08T04:29:06;7.88;;;3.25;;
71435;SDS011;59251;51.326;12.370;2023-07-08T04:31:36;8.00;;;3.28;;
71435;SDS011;59251;51.326;12.370;2023-07-08T04:34:03;8.20;;;3.00;;
71435;SDS011;59251;51.326;12.370;2023-07-08T04:36:31;11.70;;;3.33;;
71435;SDS011;59251;51.326;12.370;2023-07-08T04:38:58;9.00;;;3.40;;
71435;SDS011;59251;51.326;12.370;2023-07-08T04:41:25;9.30;;;3.40;;
71435;SDS011;59251;51.326;12.370;2023-07-08T04:43:51;8.50;;;3.35;;
71435;SDS011;59251;51.326;12.370;2023-07-08T04:46:21;9.90;;;3.33;;
71435;SDS011;59251;51.326;12.370;2023-07-08T04:49:00;9.15;;;3.30;;
71435;SDS011;59251;51.326;12.370;2023-07-08T04:51:28;7.45;;;3.10;;
71435;SDS011;59251;51.326;12.370;2023-07-08T04:53:55;10.50;;;3.33;;
71435;SDS011;59251;51.326;12.370;2023-07-08T04:56:21;7.65;;;3.38;;
71435;SDS011;59251;51.326;12.370;2023-07-08T04:58:48;7.97;;;3.17;;
71435;SDS011;59251;51.326;12.370;2023-07-08T05:01:15;9.40;;;3.38;;
71435;SDS011;59251;51.326;12.370;2023-07-08T05:03:43;7.85;;;2.85;;
71435;SDS011;59251;51.326;12.370;2023-07-08T05:06:10;10.30;;;3.50;;
71435;SDS011;59251;51.326;12.370;2023-07-08T05:08:36;9.75;;;3.55;;
71435;SDS011;59251;51.326;12.370;2023-07-08T05:11:03;8.47;;;3.07;;
71435;SDS011;59251;51.326;12.370;2023-07-08T05:13:30;10.05;;;3.58;;
71435;SDS011;59251;51.326;12.370;2023-07-08T05:15:57;9.93;;;3.45;;
71435;SDS011;59251;51.326;12.370;2023-07-08T05:18:23;8.05;;;3.30;;
71435;SDS011;59251;51.326;12.370;2023-07-08T05:20:52;8.63;;;3.28;;
71435;SDS011;59251;51.326;12.370;2023-07-08T05:23:19;9.43;;;3.30;;
71435;SDS011;59251;51.326;12.370;2023-07-08T05:25:47;8.23;;;3.30;;
71435;SDS011;59251;51.326;12.370;2023-07-08T05:28:14;7.88;;;2.97;;
71435;SDS011;59251;51.326;12.370;2023-07-08T05:30:41;9.48;;;3.50;;
71435;SDS011;59251;51.326;12.370;2023-07-08T05:33:07;9.25;;;3.40;;
71435;SDS011;59251;51.326;12.370;2023-07-08T05:35:34;10.30;;;3.13;;
71435;SDS011;59251;51.326;12.370;2023-07-08T05:38:02;7.88;;;3.20;;
71435;SDS011;59251;51.326;12.370;2023-07-08T05:40:29;9.18;;;3.47;;
71435;SDS011;59251;51.326;12.370;2023-07-08T05:42:56;9.63;;;4.38;;
71435;SDS011;59251;51.326;12.370;2023-07-08T05:45:22;8.38;;;3.20;;
71435;SDS011;59251;51.326;12.370;2023-07-08T05:47:49;9.40;;;2.90;;
71435;SDS011;59251;51.326;12.370;2023-07-08T05:50:16;9.75;;;3.80;;
71435;SDS011;59251;51.326;12.370;2023-07-08T05:52:42;8.40;;;3.13;;
71435;SDS011;59251;51.326;12.370;2023-07-08T05:55:10;8.18;;;3.00;;
71435;SDS011;59251;51.326;12.370;2023-07-08T05:57:37;9.43;;;3.38;;
71435;SDS011;59251;51.326;12.370;2023-07-08T06:00:04;9.60;;;3.10;;
71435;SDS011;59251;51.326;12.370;2023-07-08T06:02:37;9.90;;;3.63;;
71435;SDS011;59251;51.326;12.370;2023-07-08T06:05:04;8.48;;;3.10;;
71435;SDS011;59251;51.326;12.370;2023-07-08T06:07:31;9.05;;;3.08;;
71435;SDS011;59251;51.326;12.370;2023-07-08T06:09:58;8.32;;;3.25;;
71435;SDS011;59251;51.326;12.370;2023-07-08T06:12:27;8.03;;;2.93;;
71435;SDS011;59251;51.326;12.370;2023-07-08T06:14:55;11.13;;;3.53;;
71435;SDS011;59251;51.326;12.370;2023-07-08T06:17:22;7.70;;;3.35;;
71435;SDS011;59251;51.326;12.370;2023-07-08T06:19:48;9.45;;;3.30;;
71435;SDS011;59251;51.326;12.370;2023-07-08T06:22:15;10.02;;;3.55;;
71435;SDS011;59251;51.326;12.370;2023-07-08T06:24:42;8.37;;;3.40;;
71435;SDS011;59251;51.326;12.370;2023-07-08T06:27:09;9.05;;;3.40;;
71435;SDS011;59251;51.326;12.370;2023-07-08T06:29:37;8.80;;;3.58;;
71435;SDS011;59251;51.326;12.370;2023-07-08T06:32:04;7.68;;;3.45;;
71435;SDS011;59251;51.326;12.370;2023-07-08T06:34:31;8.95;;;3.35;;
71435;SDS011;59251;51.326;12.370;2023-07-08T06:36:58;8.97;;;3.10;;
71435;SDS011;59251;51.326;12.370;2023-07-08T06:39:24;7.25;;;3.33;;
71435;SDS011;59251;51.326;12.370;2023-07-08T06:41:51;7.55;;;3.15;;
71435;SDS011;59251;51.326;12.370;2023-07-08T06:44:24;11.32;;;3.30;;
71435;SDS011;59251;51.326;12.370;2023-07-08T06:46:53;9.32;;;3.42;;
71435;SDS011;59251;51.326;12.370;2023-07-08T06:49:19;9.20;;;3.20;;
71435;SDS011;59251;51.326;12.370;2023-07-08T06:51:46;8.32;;;3.40;;
71435;SDS011;59251;51.326;12.370;2023-07-08T06:54:13;8.57;;;3.50;;
71435;SDS011;59251;51.326;12.370;2023-07-08T06:56:40;8.73;;;3.25;;
71435;SDS011;59251;51.326;12.370;2023-07-08T06:59:07;11.40;;;3.47;;
71435;SDS011;59251;51.326;12.370;2023-07-08T07:01:34;10.30;;;3.43;;
71435;SDS011;59251;51.326;12.370;2023-07-08T07:04:03;9.35;;;3.17;;
71435;SDS011;59251;51.326;12.370;2023-07-08T07:06:30;10.25;;;3.40;;
71435;SDS011;59251;51.326;12.370;2023-07-08T07:08:56;9.00;;;3.25;;
71435;SDS011;59251;51.326;12.370;2023-07-08T07:11:23;7.55;;;3.35;;
71435;SDS011;59251;51.326;12.370;2023-07-08T07:13:49;6.90;;;3.10;;
71435;SDS011;59251;51.326;12.370;2023-07-08T07:16:15;7.95;;;3.22;;
71435;SDS011;59251;51.326;12.370;2023-07-08T07:18:42;8.27;;;3.17;;
71435;SDS011;59251;51.326;12.370;2023-07-08T07:21:11;9.68;;;3.25;;
71435;SDS011;59251;51.326;12.370;2023-07-08T07:23:38;8.83;;;3.50;;
71435;SDS011;59251;51.326;12.370;2023-07-08T07:26:04;8.27;;;3.22;;
71435;SDS011;59251;51.326;12.370;2023-07-08T07:28:32;7.38;;;3.28;;
71435;SDS011;59251;51.326;12.370;2023-07-08T07:30:59;8.52;;;3.65;;
71435;SDS011;59251;51.326;12.370;2023-07-08T07:33:26;6.70;;;3.00;;
71435;SDS011;59251;51.326;12.370;2023-07-08T07:35:53;6.90;;;3.20;;
71435;SDS011;59251;51.326;12.370;2023-07-08T07:38:21;9.65;;;3.38;;
71435;SDS011;59251;51.326;12.370;2023-07-08T07:40:51;8.52;;;3.45;;
71435;SDS011;59251;51.326;12.370;2023-07-08T07:43:18;8.25;;;3.55;;
71435;SDS011;59251;51.326;12.370;2023-07-08T07:45:45;7.53;;;3.15;;
71435;SDS011;59251;51.326;12.370;2023-07-08T07:48:16;8.73;;;3.33;;
71435;SDS011;59251;51.326;12.370;2023-07-08T07:50:44;8.43;;;3.13;;
71435;SDS011;59251;51.326;12.370;2023-07-08T07:53:12;7.90;;;3.00;;
71435;SDS011;59251;51.326;12.370;2023-07-08T07:55:40;8.98;;;3.30;;
71435;SDS011;59251;51.326;12.370;2023-07-08T07:58:07;8.13;;;3.50;;
71435;SDS011;59251;51.326;12.370;2023-07-08T08:00:36;7.83;;;3.20;;
71435;SDS011;59251;51.326;12.370;2023-07-08T08:03:03;7.70;;;3.20;;
71435;SDS011;59251;51.326;12.370;2023-07-08T08:05:30;7.90;;;3.38;;
71435;SDS011;59251;51.326;12.370;2023-07-08T08:07:56;8.90;;;3.30;;
71435;SDS011;59251;51.326;12.370;2023-07-08T08:10:23;10.23;;;3.75;;
71435;SDS011;59251;51.326;12.370;2023-07-08T08:12:51;8.67;;;3.13;;
71435;SDS011;59251;51.326;12.370;2023-07-08T08:15:18;8.20;;;3.63;;
71435;SDS011;59251;51.326;12.370;2023-07-08T08:17:45;7.95;;;3.10;;
71435;SDS011;59251;51.326;12.370;2023-07-08T08:20:14;11.70;;;3.30;;
71435;SDS011;59251;51.326;12.370;2023-07-08T08:22:41;8.10;;;3.03;;
71435;SDS011;59251;51.326;12.370;2023-07-08T08:25:08;9.10;;;3.57;;
71435;SDS011;59251;51.326;12.370;2023-07-08T08:27:35;9.30;;;3.85;;
71435;SDS011;59251;51.326;12.370;2023-07-08T08:30:04;11.00;;;3.60;;
71435;SDS011;59251;51.326;12.370;2023-07-08T08:32:32;7.85;;;3.47;;
71435;SDS011;59251;51.326;12.370;2023-07-08T08:34:59;8.02;;;3.63;;
71435;SDS011;59251;51.326;12.370;2023-07-08T08:37:26;9.13;;;3.10;;
71435;SDS011;59251;51.326;12.370;2023-07-08T08:39:52;10.13;;;3.38;;
71435;SDS011;59251;51.326;12.370;2023-07-08T08:42:20;7.07;;;3.13;;
71435;SDS011;59251;51.326;12.370;2023-07-08T08:44:52;8.35;;;3.78;;
71435;SDS011;59251;51.326;12.370;2023-07-08T08:47:22;7.80;;;3.63;;
71435;SDS011;59251;51.326;12.370;2023-07-08T08:49:57;7.73;;;3.47;;
71435;SDS011;59251;51.326;12.370;2023-07-08T08:52:28;7.80;;;3.42;;
71435;SDS011;59251;51.326;12.370;2023-07-08T08:54:56;8.05;;;3.42;;
71435;SDS011;59251;51.326;12.370;2023-07-08T08:57:31;8.90;;;3.88;;
71435;SDS011;59251;51.326;12.370;2023-07-08T09:00:04;8.88;;;3.40;;
71435;SDS011;59251;51.326;12.370;2023-07-08T09:02:37;10.73;;;4.00;;
71435;SDS011;59251;51.326;12.370;2023-07-08T09:05:08;8.40;;;3.55;;
71435;SDS011;59251;51.326;12.370;2023-07-08T09:07:39;7.30;;;3.30;;
71435;SDS011;59251;51.326;12.370;2023-07-08T09:10:15;8.52;;;3.90;;
71435;SDS011;59251;51.326;12.370;2023-07-08T09:12:53;7.03;;;3.42;;
71435;SDS011;59251;51.326;12.370;2023-07-08T09:15:21;7.80;;;3.47;;
71435;SDS011;59251;51.326;12.370;2023-07-08T09:17:49;8.48;;;4.10;;
71435;SDS011;59251;51.326;12.370;2023-07-08T09:20:20;7.32;;;3.60;;
71435;SDS011;59251;51.326;12.370;2023-07-08T09:22:51;8.45;;;3.65;;
71435;SDS011;59251;51.326;12.370;2023-07-08T09:25:24;10.13;;;3.70;;
71435;SDS011;59251;51.326;12.370;2023-07-08T09:27:55;8.30;;;3.50;;
71435;SDS011;59251;51.326;12.370;2023-07-08T09:30:22;6.95;;;3.65;;
71435;SDS011;59251;51.326;12.370;2023-07-08T09:32:51;7.80;;;3.60;;
71435;SDS011;59251;51.326;12.370;2023-07-08T09:35:19;7.68;;;3.80;;
71435;SDS011;59251;51.326;12.370;2023-07-08T09:37:48;8.25;;;3.83;;
71435;SDS011;59251;51.326;12.370;2023-07-08T09:40:16;6.90;;;3.50;;
71435;SDS011;59251;51.326;12.370;2023-07-08T09:42:46;7.57;;;3.90;;
71435;SDS011;59251;51.326;12.370;2023-07-08T09:45:17;8.68;;;3.50;;
71435;SDS011;59251;51.326;12.370;2023-07-08T09:47:45;8.32;;;3.80;;
71435;SDS011;59251;51.326;12.370;2023-07-08T09:50:18;8.20;;;3.78;;
71435;SDS011;59251;51.326;12.370;2023-07-08T09:52:46;9.37;;;4.07;;
71435;SDS011;59251;51.326;12.370;2023-07-08T09:55:14;10.63;;;3.78;;
71435;SDS011;59251;51.326;12.370;2023-07-08T09:57:41;10.05;;;4.03;;
71435;SDS011;59251;51.326;12.370;2023-07-08T10:00:11;8.82;;;3.83;;
71435;SDS011;59251;51.326;12.370;2023-07-08T10:02:39;7.78;;;3.70;;
71435;SDS011;59251;51.326;12.370;2023-07-08T10:05:14;8.43;;;3.57;;
71435;SDS011;59251;51.326;12.370;2023-07-08T10:07:47;7.75;;;3.50;;
71435;SDS011;59251;51.326;12.370;2023-07-08T10:10:15;8.70;;;3.88;;
71435;SDS011;59251;51.326;12.370;2023-07-08T10:12:55;8.07;;;3.55;;
71435;SDS011;59251;51.326;12.370;2023-07-08T10:15:25;8.43;;;3.60;;
71435;SDS011;59251;51.326;12.370;2023-07-08T10:17:56;12.20;;;4.10;;
71435;SDS011;59251;51.326;12.370;2023-07-08T10:20:24;8.02;;;3.85;;
71435;SDS011;59251;51.326;12.370;2023-07-08T10:23:04;8.68;;;4.30;;
71435;SDS011;59251;51.326;12.370;2023-07-08T10:25:40;9.00;;;4.15;;
71435;SDS011;59251;51.326;12.370;2023-07-08T10:28:18;7.57;;;3.83;;
71435;SDS011;59251;51.326;12.370;2023-07-08T10:30:53;8.90;;;3.77;;
71435;SDS011;59251;51.326;12.370;2023-07-08T10:33:32;8.82;;;4.00;;
71435;SDS011;59251;51.326;12.370;2023-07-08T10:36:16;8.95;;;4.05;;
71435;SDS011;59251;51.326;12.370;2023-07-08T10:38:53;7.60;;;3.40;;
71435;SDS011;59251;51.326;12.370;2023-07-08T10:41:35;8.38;;;3.65;;
71435;SDS011;59251;51.326;12.370;2023-07-08T10:44:16;7.67;;;3.03;;
71435;SDS011;59251;51.326;12.370;2023-07-08T10:46:50;7.30;;;3.42;;
71435;SDS011;59251;51.326;12.370;2023-07-08T10:49:31;8.30;;;3.60;;
71435;SDS011;59251;51.326;12.370;2023-07-08T10:52:15;7.70;;;3.42;;
71435;SDS011;59251;51.326;12.370;2023-07-08T10:54:59;8.95;;;3.75;;
71435;SDS011;59251;51.326;12.370;2023-07-08T10:57:40;7.47;;;3.50;;
71435;SDS011;59251;51.326;12.370;2023-07-08T11:00:23;7.55;;;3.47;;
71435;SDS011;59251;51.326;12.370;2023-07-08T11:03:01;8.13;;;3.80;;
71435;SDS011;59251;51.326;12.370;2023-07-08T11:06:00;8.52;;;3.60;;
71435;SDS011;59251;51.326;12.370;2023-07-08T11:08:35;7.72;;;3.88;;
71435;SDS011;59251;51.326;12.370;2023-07-08T11:11:08;6.70;;;3.27;;
71435;SDS011;59251;51.326;12.370;2023-07-08T11:13:42;7.80;;;3.90;;
71435;SDS011;59251;51.326;12.370;2023-07-08T11:16:15;7.70;;;3.92;;
71435;SDS011;59251;51.326;12.370;2023-07-08T11:18:47;8.25;;;3.70;;
71435;SDS011;59251;51.326;12.370;2023-07-08T11:21:18;8.00;;;3.92;;
71435;SDS011;59251;51.326;12.370;2023-07-08T11:23:50;8.43;;;3.90;;
71435;SDS011;59251;51.326;12.370;2023-07-08T11:26:22;9.55;;;3.42;;
71435;SDS011;59251;51.326;12.370;2023-07-08T11:28:54;8.73;;;4.00;;
71435;SDS011;59251;51.326;12.370;2023-07-08T11:31:24;7.80;;;3.60;;
71435;SDS011;59251;51.326;12.370;2023-07-08T11:33:54;11.98;;;4.28;;
71435;SDS011;59251;51.326;12.370;2023-07-08T11:36:23;7.20;;;3.80;;
71435;SDS011;59251;51.326;12.370;2023-07-08T11:38:55;8.23;;;4.03;;
71435;SDS011;59251;51.326;12.370;2023-07-08T11:41:23;7.90;;;4.00;;
71435;SDS011;59251;51.326;12.370;2023-07-08T11:43:56;7.20;;;3.47;;
71435;SDS011;59251;51.326;12.370;2023-07-08T11:46:25;6.93;;;3.25;;
71435;SDS011;59251;51.326;12.370;2023-07-08T11:48:54;7.43;;;3.40;;
71435;SDS011;59251;51.326;12.370;2023-07-08T11:51:25;6.68;;;3.65;;
71435;SDS011;59251;51.326;12.370;2023-07-08T11:54:09;6.53;;;3.30;;
71435;SDS011;59251;51.326;12.370;2023-07-08T11:56:46;6.75;;;3.10;;
71435;SDS011;59251;51.326;12.370;2023-07-08T11:59:16;7.32;;;3.55;;
71435;SDS011;59251;51.326;12.370;2023-07-08T12:01:48;7.57;;;3.17;;
71435;SDS011;59251;51.326;12.370;2023-07-08T12:04:26;6.30;;;3.00;;
71435;SDS011;59251;51.326;12.370;2023-07-08T12:07:02;8.27;;;3.53;;
71435;SDS011;59251;51.326;12.370;2023-07-08T12:09:37;6.75;;;3.42;;
71435;SDS011;59251;51.326;12.370;2023-07-08T12:12:07;6.65;;;3.35;;
71435;SDS011;59251;51.326;12.370;2023-07-08T12:14:44;5.93;;;2.80;;
71435;SDS011;59251;51.326;12.370;2023-07-08T12:17:11;7.57;;;3.60;;
71435;SDS011;59251;51.326;12.370;2023-07-08T12:19:39;9.00;;;3.83;;
71435;SDS011;59251;51.326;12.370;2023-07-08T12:22:10;7.38;;;3.90;;
71435;SDS011;59251;51.326;12.370;2023-07-08T12:24:39;7.38;;;3.80;;
71435;SDS011;59251;51.326;12.370;2023-07-08T12:27:08;6.90;;;3.93;;
71435;SDS011;59251;51.326;12.370;2023-07-08T12:29:36;8.38;;;4.13;;
71435;SDS011;59251;51.326;12.370;2023-07-08T12:32:04;7.25;;;3.90;;
71435;SDS011;59251;51.326;12.370;2023-07-08T12:34:32;8.32;;;3.75;;
71435;SDS011;59251;51.326;12.370;2023-07-08T12:36:59;7.85;;;3.85;;
71435;SDS011;59251;51.326;12.370;2023-07-08T12:39:25;7.77;;;4.13;;
71435;SDS011;59251;51.326;12.370;2023-07-08T12:41:54;8.18;;;4.13;;
71435;SDS011;59251;51.326;12.370;2023-07-08T12:44:23;6.75;;;3.70;;
71435;SDS011;59251;51.326;12.370;2023-07-08T12:46:52;7.95;;;3.42;;
71435;SDS011;59251;51.326;12.370;2023-07-08T12:49:20;7.07;;;3.70;;
71435;SDS011;59251;51.326;12.370;2023-07-08T12:51:52;8.27;;;3.97;;
71435;SDS011;59251;51.326;12.370;2023-07-08T12:54:18;7.00;;;3.88;;
71435;SDS011;59251;51.326;12.370;2023-07-08T12:56:46;7.18;;;4.07;;
71435;SDS011;59251;51.326;12.370;2023-07-08T12:59:17;7.97;;;4.30;;
71435;SDS011;59251;51.326;12.370;2023-07-08T13:01:45;7.03;;;4.03;;
71435;SDS011;59251;51.326;12.370;2023-07-08T13:04:13;7.60;;;3.90;;
71435;SDS011;59251;51.326;12.370;2023-07-08T13:06:40;8.38;;;5.28;;
71435;SDS011;59251;51.326;12.370;2023-07-08T13:09:15;7.15;;;3.85;;
71435;SDS011;59251;51.326;12.370;2023-07-08T13:11:53;7.25;;;4.22;;
71435;SDS011;59251;51.326;12.370;2023-07-08T13:14:23;6.93;;;3.40;;
71435;SDS011;59251;51.326;12.370;2023-07-08T13:16:50;7.00;;;3.97;;
71435;SDS011;59251;51.326;12.370;2023-07-08T13:19:18;8.25;;;3.88;;
71435;SDS011;59251;51.326;12.370;2023-07-08T13:21:45;7.25;;;4.05;;
71435;SDS011;59251;51.326;12.370;2023-07-08T13:24:12;6.97;;;3.80;;
71435;SDS011;59251;51.326;12.370;2023-07-08T13:26:39;7.47;;;4.00;;
71435;SDS011;59251;51.326;12.370;2023-07-08T13:29:11;8.70;;;4.07;;
71435;SDS011;59251;51.326;12.370;2023-07-08T13:31:43;7.10;;;4.43;;
71435;SDS011;59251;51.326;12.370;2023-07-08T13:34:15;8.73;;;4.00;;
71435;SDS011;59251;51.326;12.370;2023-07-08T13:36:43;7.38;;;3.97;;
71435;SDS011;59251;51.326;12.370;2023-07-08T13:39:15;7.60;;;3.85;;
71435;SDS011;59251;51.326;12.370;2023-07-08T13:41:45;6.70;;;3.57;;
71435;SDS011;59251;51.326;12.370;2023-07-08T13:44:12;8.25;;;3.97;;
71435;SDS011;59251;51.326;12.370;2023-07-08T13:46:40;7.88;;;4.13;;
71435;SDS011;59251;51.326;12.370;2023-07-08T13:49:19;7.72;;;4.30;;
71435;SDS011;59251;51.326;12.370;2023-07-08T13:51:48;6.60;;;3.75;;
71435;SDS011;59251;51.326;12.370;2023-07-08T13:54:18;6.73;;;3.90;;
71435;SDS011;59251;51.326;12.370;2023-07-08T13:56:47;7.60;;;4.30;;
71435;SDS011;59251;51.326;12.370;2023-07-08T13:59:17;6.82;;;3.83;;
71435;SDS011;59251;51.326;12.370;2023-07-08T14:01:47;8.70;;;4.65;;
71435;SDS011;59251;51.326;12.370;2023-07-08T14:04:18;8.80;;;4.40;;
71435;SDS011;59251;51.326;12.370;2023-07-08T14:06:46;7.57;;;4.30;;
71435;SDS011;59251;51.326;12.370;2023-07-08T14:09:14;8.70;;;4.85;;
71435;SDS011;59251;51.326;12.370;2023-07-08T14:11:43;7.35;;;4.60;;
71435;SDS011;59251;51.326;12.370;2023-07-08T14:14:10;7.55;;;4.53;;
71435;SDS011;59251;51.326;12.370;2023-07-08T14:16:38;7.88;;;4.38;;
71435;SDS011;59251;51.326;12.370;2023-07-08T14:19:10;9.43;;;4.87;;
71435;SDS011;59251;51.326;12.370;2023-07-08T14:21:39;7.05;;;4.47;;
71435;SDS011;59251;51.326;12.370;2023-07-08T14:24:10;7.60;;;4.35;;
71435;SDS011;59251;51.326;12.370;2023-07-08T14:26:38;7.35;;;4.30;;
71435;SDS011;59251;51.326;12.370;2023-07-08T14:29:07;7.60;;;4.82;;
71435;SDS011;59251;51.326;12.370;2023-07-08T14:31:34;8.23;;;4.63;;
71435;SDS011;59251;51.326;12.370;2023-07-08T14:34:03;8.25;;;4.30;;
71435;SDS011;59251;51.326;12.370;2023-07-08T14:36:33;8.27;;;4.85;;
71435;SDS011;59251;51.326;12.370;2023-07-08T14:39:00;8.05;;;4.88;;
71435;SDS011;59251;51.326;12.370;2023-07-08T14:41:34;10.27;;;4.47;;
71435;SDS011;59251;51.326;12.370;2023-07-08T14:44:01;8.10;;;4.57;;
71435;SDS011;59251;51.326;12.370;2023-07-08T14:46:28;8.48;;;4.20;;